sensor_id;sensor_type;location;lat;lon;timestamp;P1;durP1;ratioP1;P2;durP2;ratioP2
52274;SDS011;38228;50.940;4.024;2023-07-30T00:01:33;11.48;;;2.72;;
52274;SDS011;38228;50.940;4.024;2023-07-30T00:03:58;16.83;;;3.13;;
52274;SDS011;38228;50.940;4.024;2023-07-30T00:06:24;20.83;;;3.28;;
52274;SDS011;38228;50.940;4.024;2023-07-30T00:08:50;15.65;;;3.40;;
52274;SDS011;38228;50.940;4.024;2023-07-30T00:11:16;16.25;;;3.00;;
52274;SDS011;38228;50.940;4.024;2023-07-30T00:13:42;13.93;;;3.50;;
52274;SDS011;38228;50.940;4.024;2023-07-30T00:16:07;19.77;;;3.38;;
52274;SDS011;38228;50.940;4.024;2023-07-30T00:18:33;12.48;;;3.20;;
52274;SDS011;38228;50.940;4.024;2023-07-30T00:20:59;16.05;;;2.92;;
52274;SDS011;38228;50.940;4.024;2023-07-30T00:23:25;15.65;;;2.97;;
52274;SDS011;38228;50.940;4.024;2023-07-30T00:25:50;18.00;;;3.25;;
52274;SDS011;38228;50.940;4.024;2023-07-30T00:28:16;12.23;;;2.85;;
52274;SDS011;38228;50.940;4.024;2023-07-30T00:30:42;17.88;;;3.47;;
52274;SDS011;38228;50.940;4.024;2023-07-30T00:33:07;17.88;;;3.42;;
52274;SDS011;38228;50.940;4.024;2023-07-30T00:35:33;11.15;;;2.72;;
52274;SDS011;38228;50.940;4.024;2023-07-30T00:37:59;17.52;;;3.33;;
52274;SDS011;38228;50.940;4.024;2023-07-30T00:40:24;17.70;;;2.70;;
52274;SDS011;38228;50.940;4.024;2023-07-30T00:42:50;19.60;;;3.13;;
52274;SDS011;38228;50.940;4.024;2023-07-30T00:45:16;12.00;;;2.80;;
52274;SDS011;38228;50.940;4.024;2023-07-30T00:47:41;16.45;;;3.50;;
52274;SDS011;38228;50.940;4.024;2023-07-30T00:50:08;19.10;;;3.08;;
52274;SDS011;38228;50.940;4.024;2023-07-30T00:52:37;15.05;;;3.20;;
52274;SDS011;38228;50.940;4.024;2023-07-30T00:55:04;15.05;;;3.13;;
52274;SDS011;38228;50.940;4.024;2023-07-30T00:57:32;20.23;;;3.15;;
52274;SDS011;38228;50.940;4.024;2023-07-30T01:00:01;14.57;;;3.55;;
52274;SDS011;38228;50.940;4.024;2023-07-30T01:02:31;14.75;;;3.13;;
52274;SDS011;38228;50.940;4.024;2023-07-30T01:04:57;19.77;;;3.22;;
52274;SDS011;38228;50.940;4.024;2023-07-30T01:07:25;19.08;;;3.00;;
52274;SDS011;38228;50.940;4.024;2023-07-30T01:09:50;18.83;;;3.42;;
52274;SDS011;38228;50.940;4.024;2023-07-30T01:12:17;17.92;;;3.38;;
52274;SDS011;38228;50.940;4.024;2023-07-30T01:14:43;17.30;;;3.40;;
52274;SDS011;38228;50.940;4.024;2023-07-30T01:17:11;21.35;;;3.40;;
52274;SDS011;38228;50.940;4.024;2023-07-30T01:19:37;19.27;;;3.25;;
52274;SDS011;38228;50.940;4.024;2023-07-30T01:22:02;18.25;;;3.33;;
52274;SDS011;38228;50.940;4.024;2023-07-30T01:24:28;16.63;;;3.03;;
52274;SDS011;38228;50.940;4.024;2023-07-30T01:27:07;18.13;;;3.08;;
52274;SDS011;38228;50.940;4.024;2023-07-30T01:29:45;18.88;;;3.15;;
52274;SDS011;38228;50.940;4.024;2023-07-30T01:32:17;19.92;;;3.20;;
52274;SDS011;38228;50.940;4.024;2023-07-30T01:34:48;16.58;;;2.97;;
52274;SDS011;38228;50.940;4.024;2023-07-30T01:37:20;17.60;;;2.88;;
52274;SDS011;38228;50.940;4.024;2023-07-30T01:39:46;21.52;;;3.35;;
52274;SDS011;38228;50.940;4.024;2023-07-30T01:42:14;18.77;;;2.97;;
52274;SDS011;38228;50.940;4.024;2023-07-30T01:44:41;20.80;;;3.58;;
52274;SDS011;38228;50.940;4.024;2023-07-30T01:47:06;20.08;;;3.22;;
52274;SDS011;38228;50.940;4.024;2023-07-30T01:49:32;19.52;;;2.75;;
52274;SDS011;38228;50.940;4.024;2023-07-30T01:51:58;15.45;;;2.75;;
52274;SDS011;38228;50.940;4.024;2023-07-30T01:54:24;19.50;;;3.13;;
52274;SDS011;38228;50.940;4.024;2023-07-30T01:56:49;16.63;;;3.10;;
52274;SDS011;38228;50.940;4.024;2023-07-30T01:59:15;13.68;;;2.63;;
52274;SDS011;38228;50.940;4.024;2023-07-30T02:01:41;22.58;;;3.75;;
52274;SDS011;38228;50.940;4.024;2023-07-30T02:04:08;15.63;;;2.70;;
52274;SDS011;38228;50.940;4.024;2023-07-30T02:06:33;22.92;;;3.15;;
52274;SDS011;38228;50.940;4.024;2023-07-30T02:08:59;24.40;;;3.55;;
52274;SDS011;38228;50.940;4.024;2023-07-30T02:11:25;21.35;;;3.00;;
52274;SDS011;38228;50.940;4.024;2023-07-30T02:13:51;23.40;;;3.10;;
52274;SDS011;38228;50.940;4.024;2023-07-30T02:16:17;22.15;;;3.53;;
52274;SDS011;38228;50.940;4.024;2023-07-30T02:18:42;17.40;;;2.92;;
52274;SDS011;38228;50.940;4.024;2023-07-30T02:21:08;16.65;;;2.42;;
52274;SDS011;38228;50.940;4.024;2023-07-30T02:23:34;21.60;;;3.38;;
52274;SDS011;38228;50.940;4.024;2023-07-30T02:26:00;17.85;;;2.97;;
52274;SDS011;38228;50.940;4.024;2023-07-30T02:28:25;18.00;;;3.20;;
52274;SDS011;38228;50.940;4.024;2023-07-30T02:30:51;24.17;;;3.05;;
52274;SDS011;38228;50.940;4.024;2023-07-30T02:33:17;21.75;;;3.60;;
52274;SDS011;38228;50.940;4.024;2023-07-30T02:35:43;31.17;;;3.40;;
52274;SDS011;38228;50.940;4.024;2023-07-30T02:38:09;15.40;;;2.63;;
52274;SDS011;38228;50.940;4.024;2023-07-30T02:40:35;19.15;;;3.17;;
52274;SDS011;38228;50.940;4.024;2023-07-30T02:43:00;23.02;;;3.60;;
52274;SDS011;38228;50.940;4.024;2023-07-30T02:45:26;23.48;;;3.65;;
52274;SDS011;38228;50.940;4.024;2023-07-30T02:47:52;19.95;;;3.28;;
52274;SDS011;38228;50.940;4.024;2023-07-30T02:50:18;17.13;;;3.25;;
52274;SDS011;38228;50.940;4.024;2023-07-30T02:52:43;19.00;;;3.65;;
52274;SDS011;38228;50.940;4.024;2023-07-30T02:55:09;23.40;;;3.45;;
52274;SDS011;38228;50.940;4.024;2023-07-30T02:57:35;19.70;;;3.30;;
52274;SDS011;38228;50.940;4.024;2023-07-30T03:00:00;19.73;;;3.05;;
52274;SDS011;38228;50.940;4.024;2023-07-30T03:02:26;21.55;;;2.90;;
52274;SDS011;38228;50.940;4.024;2023-07-30T03:04:52;20.25;;;3.20;;
52274;SDS011;38228;50.940;4.024;2023-07-30T03:07:18;19.00;;;2.97;;
52274;SDS011;38228;50.940;4.024;2023-07-30T03:09:44;20.75;;;2.90;;
52274;SDS011;38228;50.940;4.024;2023-07-30T03:12:10;20.48;;;3.80;;
52274;SDS011;38228;50.940;4.024;2023-07-30T03:14:36;20.00;;;3.00;;
52274;SDS011;38228;50.940;4.024;2023-07-30T03:17:02;20.85;;;3.03;;
52274;SDS011;38228;50.940;4.024;2023-07-30T03:19:29;26.25;;;3.17;;
52274;SDS011;38228;50.940;4.024;2023-07-30T03:21:55;19.48;;;3.20;;
52274;SDS011;38228;50.940;4.024;2023-07-30T03:24:21;25.17;;;3.65;;
52274;SDS011;38228;50.940;4.024;2023-07-30T03:26:46;17.15;;;3.38;;
52274;SDS011;38228;50.940;4.024;2023-07-30T03:29:12;24.75;;;3.28;;
52274;SDS011;38228;50.940;4.024;2023-07-30T03:31:38;21.98;;;2.95;;
52274;SDS011;38228;50.940;4.024;2023-07-30T03:34:03;17.35;;;2.70;;
52274;SDS011;38228;50.940;4.024;2023-07-30T03:36:29;26.10;;;3.00;;
52274;SDS011;38228;50.940;4.024;2023-07-30T03:38:55;23.52;;;3.70;;
52274;SDS011;38228;50.940;4.024;2023-07-30T03:41:20;20.65;;;3.30;;
52274;SDS011;38228;50.940;4.024;2023-07-30T03:43:47;24.42;;;3.40;;
52274;SDS011;38228;50.940;4.024;2023-07-30T03:46:12;19.70;;;3.17;;
52274;SDS011;38228;50.940;4.024;2023-07-30T03:48:38;20.38;;;3.30;;
52274;SDS011;38228;50.940;4.024;2023-07-30T03:51:04;24.20;;;3.30;;
52274;SDS011;38228;50.940;4.024;2023-07-30T03:53:31;20.42;;;3.20;;
52274;SDS011;38228;50.940;4.024;2023-07-30T03:55:56;29.55;;;3.67;;
52274;SDS011;38228;50.940;4.024;2023-07-30T03:58:22;19.35;;;3.22;;
52274;SDS011;38228;50.940;4.024;2023-07-30T04:00:48;15.05;;;2.83;;
52274;SDS011;38228;50.940;4.024;2023-07-30T04:03:14;23.90;;;3.33;;
52274;SDS011;38228;50.940;4.024;2023-07-30T04:05:39;23.00;;;3.40;;
52274;SDS011;38228;50.940;4.024;2023-07-30T04:08:05;19.05;;;3.30;;
52274;SDS011;38228;50.940;4.024;2023-07-30T04:10:31;19.58;;;3.47;;
52274;SDS011;38228;50.940;4.024;2023-07-30T04:12:56;24.75;;;3.45;;
52274;SDS011;38228;50.940;4.024;2023-07-30T04:15:22;18.65;;;3.50;;
52274;SDS011;38228;50.940;4.024;2023-07-30T04:17:48;19.83;;;3.90;;
52274;SDS011;38228;50.940;4.024;2023-07-30T04:20:13;25.75;;;3.42;;
52274;SDS011;38228;50.940;4.024;2023-07-30T04:22:39;27.13;;;4.93;;
52274;SDS011;38228;50.940;4.024;2023-07-30T04:25:07;21.27;;;3.83;;
52274;SDS011;38228;50.940;4.024;2023-07-30T04:27:33;22.48;;;3.58;;
52274;SDS011;38228;50.940;4.024;2023-07-30T04:29:58;27.23;;;4.60;;
52274;SDS011;38228;50.940;4.024;2023-07-30T04:32:24;23.80;;;4.40;;
52274;SDS011;38228;50.940;4.024;2023-07-30T04:34:50;26.75;;;3.92;;
52274;SDS011;38228;50.940;4.024;2023-07-30T04:37:15;22.42;;;3.97;;
52274;SDS011;38228;50.940;4.024;2023-07-30T04:39:41;23.92;;;3.97;;
52274;SDS011;38228;50.940;4.024;2023-07-30T04:42:07;31.35;;;4.43;;
52274;SDS011;38228;50.940;4.024;2023-07-30T04:44:33;20.83;;;3.58;;
52274;SDS011;38228;50.940;4.024;2023-07-30T04:46:58;22.08;;;3.53;;
52274;SDS011;38228;50.940;4.024;2023-07-30T04:49:24;21.88;;;3.25;;
52274;SDS011;38228;50.940;4.024;2023-07-30T04:51:50;23.05;;;3.63;;
52274;SDS011;38228;50.940;4.024;2023-07-30T04:54:15;34.13;;;4.57;;
52274;SDS011;38228;50.940;4.024;2023-07-30T04:56:41;24.38;;;4.13;;
52274;SDS011;38228;50.940;4.024;2023-07-30T04:59:07;26.20;;;3.75;;
52274;SDS011;38228;50.940;4.024;2023-07-30T05:01:33;21.58;;;4.07;;
52274;SDS011;38228;50.940;4.024;2023-07-30T05:03:58;23.95;;;3.33;;
52274;SDS011;38228;50.940;4.024;2023-07-30T05:06:24;25.20;;;3.42;;
52274;SDS011;38228;50.940;4.024;2023-07-30T05:08:49;21.67;;;3.67;;
52274;SDS011;38228;50.940;4.024;2023-07-30T05:11:15;25.33;;;3.78;;
52274;SDS011;38228;50.940;4.024;2023-07-30T05:13:41;27.40;;;3.65;;
52274;SDS011;38228;50.940;4.024;2023-07-30T05:16:07;18.02;;;3.28;;
52274;SDS011;38228;50.940;4.024;2023-07-30T05:18:32;23.95;;;4.55;;
52274;SDS011;38228;50.940;4.024;2023-07-30T05:20:58;27.92;;;4.13;;
52274;SDS011;38228;50.940;4.024;2023-07-30T05:23:24;21.92;;;3.55;;
52274;SDS011;38228;50.940;4.024;2023-07-30T05:25:49;21.23;;;3.50;;
52274;SDS011;38228;50.940;4.024;2023-07-30T05:28:15;25.52;;;3.70;;
52274;SDS011;38228;50.940;4.024;2023-07-30T05:30:41;27.48;;;4.07;;
52274;SDS011;38228;50.940;4.024;2023-07-30T05:33:07;25.27;;;4.13;;
52274;SDS011;38228;50.940;4.024;2023-07-30T05:35:32;28.98;;;4.13;;
52274;SDS011;38228;50.940;4.024;2023-07-30T05:37:58;26.70;;;3.80;;
52274;SDS011;38228;50.940;4.024;2023-07-30T05:40:24;21.23;;;3.33;;
52274;SDS011;38228;50.940;4.024;2023-07-30T05:42:50;21.58;;;3.25;;
52274;SDS011;38228;50.940;4.024;2023-07-30T05:45:15;26.20;;;3.47;;
52274;SDS011;38228;50.940;4.024;2023-07-30T05:47:41;20.83;;;2.92;;
52274;SDS011;38228;50.940;4.024;2023-07-30T05:50:07;21.75;;;3.47;;
52274;SDS011;38228;50.940;4.024;2023-07-30T05:52:33;23.20;;;3.90;;
52274;SDS011;38228;50.940;4.024;2023-07-30T05:54:59;24.08;;;4.43;;
52274;SDS011;38228;50.940;4.024;2023-07-30T05:57:25;27.40;;;4.10;;
52274;SDS011;38228;50.940;4.024;2023-07-30T05:59:51;32.75;;;4.30;;
52274;SDS011;38228;50.940;4.024;2023-07-30T06:02:16;24.85;;;3.70;;
52274;SDS011;38228;50.940;4.024;2023-07-30T06:04:43;23.45;;;3.83;;
52274;SDS011;38228;50.940;4.024;2023-07-30T06:07:08;23.80;;;3.55;;
52274;SDS011;38228;50.940;4.024;2023-07-30T06:09:35;24.75;;;3.95;;
52274;SDS011;38228;50.940;4.024;2023-07-30T06:12:01;26.10;;;3.75;;
52274;SDS011;38228;50.940;4.024;2023-07-30T06:14:27;25.05;;;3.80;;
52274;SDS011;38228;50.940;4.024;2023-07-30T06:16:53;26.15;;;4.18;;
52274;SDS011;38228;50.940;4.024;2023-07-30T06:19:19;26.50;;;4.53;;
52274;SDS011;38228;50.940;4.024;2023-07-30T06:21:46;25.10;;;3.70;;
52274;SDS011;38228;50.940;4.024;2023-07-30T06:24:11;24.52;;;4.25;;
52274;SDS011;38228;50.940;4.024;2023-07-30T06:26:37;27.98;;;3.97;;
52274;SDS011;38228;50.940;4.024;2023-07-30T06:29:03;24.80;;;3.80;;
52274;SDS011;38228;50.940;4.024;2023-07-30T06:31:29;18.13;;;3.42;;
52274;SDS011;38228;50.940;4.024;2023-07-30T06:33:55;28.98;;;3.90;;
52274;SDS011;38228;50.940;4.024;2023-07-30T06:36:20;22.52;;;4.03;;
52274;SDS011;38228;50.940;4.024;2023-07-30T06:38:46;29.35;;;4.28;;
52274;SDS011;38228;50.940;4.024;2023-07-30T06:41:12;27.42;;;4.00;;
52274;SDS011;38228;50.940;4.024;2023-07-30T06:43:38;29.90;;;3.80;;
52274;SDS011;38228;50.940;4.024;2023-07-30T06:46:04;30.90;;;4.60;;
52274;SDS011;38228;50.940;4.024;2023-07-30T06:48:30;23.20;;;4.13;;
52274;SDS011;38228;50.940;4.024;2023-07-30T06:50:56;24.42;;;4.05;;
52274;SDS011;38228;50.940;4.024;2023-07-30T06:53:22;25.83;;;4.00;;
52274;SDS011;38228;50.940;4.024;2023-07-30T06:55:47;22.23;;;3.60;;
52274;SDS011;38228;50.940;4.024;2023-07-30T06:58:13;27.23;;;4.53;;
52274;SDS011;38228;50.940;4.024;2023-07-30T07:00:39;26.67;;;4.32;;
52274;SDS011;38228;50.940;4.024;2023-07-30T07:03:05;22.83;;;3.50;;
52274;SDS011;38228;50.940;4.024;2023-07-30T07:05:30;15.65;;;3.70;;
52274;SDS011;38228;50.940;4.024;2023-07-30T07:07:56;25.45;;;4.18;;
52274;SDS011;38228;50.940;4.024;2023-07-30T07:10:22;20.25;;;3.63;;
52274;SDS011;38228;50.940;4.024;2023-07-30T07:12:48;21.30;;;3.35;;
52274;SDS011;38228;50.940;4.024;2023-07-30T07:15:13;25.23;;;4.05;;
52274;SDS011;38228;50.940;4.024;2023-07-30T07:17:39;21.17;;;3.80;;
52274;SDS011;38228;50.940;4.024;2023-07-30T07:20:05;22.55;;;3.38;;
52274;SDS011;38228;50.940;4.024;2023-07-30T07:22:32;21.58;;;3.58;;
52274;SDS011;38228;50.940;4.024;2023-07-30T07:24:58;21.25;;;3.35;;
52274;SDS011;38228;50.940;4.024;2023-07-30T07:27:24;18.55;;;3.38;;
52274;SDS011;38228;50.940;4.024;2023-07-30T07:29:50;16.70;;;3.28;;
52274;SDS011;38228;50.940;4.024;2023-07-30T07:32:17;23.52;;;3.25;;
52274;SDS011;38228;50.940;4.024;2023-07-30T07:34:47;16.75;;;3.53;;
52274;SDS011;38228;50.940;4.024;2023-07-30T07:37:13;18.52;;;3.20;;
52274;SDS011;38228;50.940;4.024;2023-07-30T07:39:44;23.60;;;4.20;;
52274;SDS011;38228;50.940;4.024;2023-07-30T07:42:10;18.83;;;2.95;;
52274;SDS011;38228;50.940;4.024;2023-07-30T07:44:36;18.10;;;3.15;;
52274;SDS011;38228;50.940;4.024;2023-07-30T07:47:02;24.80;;;3.67;;
52274;SDS011;38228;50.940;4.024;2023-07-30T07:49:28;20.98;;;3.28;;
52274;SDS011;38228;50.940;4.024;2023-07-30T07:51:54;18.23;;;2.90;;
52274;SDS011;38228;50.940;4.024;2023-07-30T07:54:20;17.00;;;3.03;;
52274;SDS011;38228;50.940;4.024;2023-07-30T07:56:45;22.48;;;3.55;;
52274;SDS011;38228;50.940;4.024;2023-07-30T07:59:11;20.20;;;3.17;;
52274;SDS011;38228;50.940;4.024;2023-07-30T08:01:37;17.15;;;2.95;;
52274;SDS011;38228;50.940;4.024;2023-07-30T08:04:03;19.15;;;3.30;;
52274;SDS011;38228;50.940;4.024;2023-07-30T08:06:28;16.55;;;2.92;;
52274;SDS011;38228;50.940;4.024;2023-07-30T08:08:56;14.88;;;3.17;;
52274;SDS011;38228;50.940;4.024;2023-07-30T08:11:22;15.77;;;3.00;;
52274;SDS011;38228;50.940;4.024;2023-07-30T08:13:48;21.70;;;3.78;;
52274;SDS011;38228;50.940;4.024;2023-07-30T08:16:13;11.82;;;2.80;;
52274;SDS011;38228;50.940;4.024;2023-07-30T08:18:39;15.68;;;3.10;;
52274;SDS011;38228;50.940;4.024;2023-07-30T08:21:05;17.75;;;2.97;;
52274;SDS011;38228;50.940;4.024;2023-07-30T08:23:30;14.07;;;2.30;;
52274;SDS011;38228;50.940;4.024;2023-07-30T08:25:56;17.17;;;2.65;;
52274;SDS011;38228;50.940;4.024;2023-07-30T08:28:22;11.85;;;2.10;;
52274;SDS011;38228;50.940;4.024;2023-07-30T08:30:47;10.50;;;2.35;;
52274;SDS011;38228;50.940;4.024;2023-07-30T08:33:13;11.88;;;2.47;;
52274;SDS011;38228;50.940;4.024;2023-07-30T08:35:39;14.48;;;2.30;;
52274;SDS011;38228;50.940;4.024;2023-07-30T08:38:05;12.05;;;2.05;;
52274;SDS011;38228;50.940;4.024;2023-07-30T08:40:31;9.27;;;1.83;;
52274;SDS011;38228;50.940;4.024;2023-07-30T08:42:57;15.02;;;2.55;;
52274;SDS011;38228;50.940;4.024;2023-07-30T08:45:23;11.23;;;2.13;;
52274;SDS011;38228;50.940;4.024;2023-07-30T08:47:49;9.80;;;1.35;;
52274;SDS011;38228;50.940;4.024;2023-07-30T08:50:14;7.70;;;1.70;;
52274;SDS011;38228;50.940;4.024;2023-07-30T08:52:41;10.55;;;2.10;;
52274;SDS011;38228;50.940;4.024;2023-07-30T08:55:07;6.38;;;1.35;;
52274;SDS011;38228;50.940;4.024;2023-07-30T08:57:33;8.57;;;1.77;;
52274;SDS011;38228;50.940;4.024;2023-07-30T09:00:02;10.55;;;1.63;;
52274;SDS011;38228;50.940;4.024;2023-07-30T09:03:09;8.43;;;2.47;;
52274;SDS011;38228;50.940;4.024;2023-07-30T09:05:29;11.13;;;2.13;;
52274;SDS011;38228;50.940;4.024;2023-07-30T09:07:55;15.40;;;2.75;;
52274;SDS011;38228;50.940;4.024;2023-07-30T09:10:22;12.60;;;2.65;;
52274;SDS011;38228;50.940;4.024;2023-07-30T09:12:57;13.85;;;2.30;;
52274;SDS011;38228;50.940;4.024;2023-07-30T09:15:33;13.60;;;2.42;;
52274;SDS011;38228;50.940;4.024;2023-07-30T09:18:02;15.55;;;2.75;;
52274;SDS011;38228;50.940;4.024;2023-07-30T09:20:36;13.55;;;2.60;;
52274;SDS011;38228;50.940;4.024;2023-07-30T09:25:28;11.10;;;2.50;;
52274;SDS011;38228;50.940;4.024;2023-07-30T09:27:54;13.68;;;2.50;;
52274;SDS011;38228;50.940;4.024;2023-07-30T09:30:22;12.05;;;2.40;;
52274;SDS011;38228;50.940;4.024;2023-07-30T09:32:51;12.75;;;2.47;;
52274;SDS011;38228;50.940;4.024;2023-07-30T09:35:18;10.00;;;2.35;;
52274;SDS011;38228;50.940;4.024;2023-07-30T09:37:44;13.20;;;2.25;;
52274;SDS011;38228;50.940;4.024;2023-07-30T09:40:11;11.52;;;2.08;;
52274;SDS011;38228;50.940;4.024;2023-07-30T09:42:38;8.98;;;2.35;;
52274;SDS011;38228;50.940;4.024;2023-07-30T09:45:08;11.63;;;2.03;;
52274;SDS011;38228;50.940;4.024;2023-07-30T09:47:45;9.30;;;1.92;;
52274;SDS011;38228;50.940;4.024;2023-07-30T09:50:15;9.65;;;1.73;;
52274;SDS011;38228;50.940;4.024;2023-07-30T09:52:44;11.48;;;2.30;;
52274;SDS011;38228;50.940;4.024;2023-07-30T09:55:10;12.27;;;2.17;;
52274;SDS011;38228;50.940;4.024;2023-07-30T09:57:37;11.40;;;2.05;;
52274;SDS011;38228;50.940;4.024;2023-07-30T10:00:04;9.60;;;2.40;;
52274;SDS011;38228;50.940;4.024;2023-07-30T10:02:31;8.80;;;2.22;;
52274;SDS011;38228;50.940;4.024;2023-07-30T10:05:02;14.10;;;2.42;;
52274;SDS011;38228;50.940;4.024;2023-07-30T10:07:33;10.35;;;2.08;;
52274;SDS011;38228;50.940;4.024;2023-07-30T10:10:00;11.63;;;2.10;;
52274;SDS011;38228;50.940;4.024;2023-07-30T10:12:29;13.55;;;2.35;;
52274;SDS011;38228;50.940;4.024;2023-07-30T10:14:58;10.35;;;2.13;;
52274;SDS011;38228;50.940;4.024;2023-07-30T10:17:25;14.05;;;2.50;;
52274;SDS011;38228;50.940;4.024;2023-07-30T10:19:51;14.73;;;2.40;;
52274;SDS011;38228;50.940;4.024;2023-07-30T10:24:54;11.85;;;2.38;;
52274;SDS011;38228;50.940;4.024;2023-07-30T10:27:23;15.73;;;2.40;;
52274;SDS011;38228;50.940;4.024;2023-07-30T10:32:57;10.60;;;1.92;;
52274;SDS011;38228;50.940;4.024;2023-07-30T10:35:44;12.90;;;2.22;;
52274;SDS011;38228;50.940;4.024;2023-07-30T10:41:09;8.38;;;1.67;;
52274;SDS011;38228;50.940;4.024;2023-07-30T10:43:41;11.45;;;2.47;;
52274;SDS011;38228;50.940;4.024;2023-07-30T10:46:11;11.77;;;1.90;;
52274;SDS011;38228;50.940;4.024;2023-07-30T10:48:39;9.75;;;1.60;;
52274;SDS011;38228;50.940;4.024;2023-07-30T10:51:08;9.13;;;2.05;;
52274;SDS011;38228;50.940;4.024;2023-07-30T10:53:34;8.35;;;1.70;;
52274;SDS011;38228;50.940;4.024;2023-07-30T10:56:02;7.25;;;1.40;;
52274;SDS011;38228;50.940;4.024;2023-07-30T10:58:32;9.18;;;1.60;;
52274;SDS011;38228;50.940;4.024;2023-07-30T11:01:06;10.43;;;1.67;;
52274;SDS011;38228;50.940;4.024;2023-07-30T11:03:32;8.85;;;1.63;;
52274;SDS011;38228;50.940;4.024;2023-07-30T11:05:59;9.55;;;1.58;;
52274;SDS011;38228;50.940;4.024;2023-07-30T11:08:32;5.38;;;1.33;;
52274;SDS011;38228;50.940;4.024;2023-07-30T11:11:02;9.57;;;1.85;;
52274;SDS011;38228;50.940;4.024;2023-07-30T11:13:28;9.30;;;1.85;;
52274;SDS011;38228;50.940;4.024;2023-07-30T11:15:54;9.18;;;1.80;;
52274;SDS011;38228;50.940;4.024;2023-07-30T11:18:20;10.13;;;1.58;;
52274;SDS011;38228;50.940;4.024;2023-07-30T11:20:46;7.03;;;1.17;;
52274;SDS011;38228;50.940;4.024;2023-07-30T11:23:21;10.90;;;1.65;;
52274;SDS011;38228;50.940;4.024;2023-07-30T11:25:48;9.45;;;1.75;;
52274;SDS011;38228;50.940;4.024;2023-07-30T11:28:15;7.63;;;1.38;;
52274;SDS011;38228;50.940;4.024;2023-07-30T11:30:53;5.63;;;1.10;;
52274;SDS011;38228;50.940;4.024;2023-07-30T11:33:19;6.45;;;1.20;;
52274;SDS011;38228;50.940;4.024;2023-07-30T11:35:45;6.03;;;1.23;;
52274;SDS011;38228;50.940;4.024;2023-07-30T11:38:11;6.90;;;1.27;;
52274;SDS011;38228;50.940;4.024;2023-07-30T11:40:38;5.60;;;1.35;;
52274;SDS011;38228;50.940;4.024;2023-07-30T11:43:05;6.47;;;1.38;;
52274;SDS011;38228;50.940;4.024;2023-07-30T11:45:30;6.13;;;1.20;;
52274;SDS011;38228;50.940;4.024;2023-07-30T11:48:06;6.35;;;1.10;;
52274;SDS011;38228;50.940;4.024;2023-07-30T11:50:47;7.18;;;1.30;;
52274;SDS011;38228;50.940;4.024;2023-07-30T11:53:16;6.25;;;1.30;;
52274;SDS011;38228;50.940;4.024;2023-07-30T11:55:43;5.68;;;1.10;;
52274;SDS011;38228;50.940;4.024;2023-07-30T11:58:10;9.88;;;1.70;;
52274;SDS011;38228;50.940;4.024;2023-07-30T12:00:38;5.25;;;1.35;;
52274;SDS011;38228;50.940;4.024;2023-07-30T12:03:04;6.00;;;1.20;;
52274;SDS011;38228;50.940;4.024;2023-07-30T12:05:37;5.43;;;1.20;;
52274;SDS011;38228;50.940;4.024;2023-07-30T12:08:04;6.63;;;1.42;;
52274;SDS011;38228;50.940;4.024;2023-07-30T12:10:47;4.38;;;1.08;;
52274;SDS011;38228;50.940;4.024;2023-07-30T12:13:15;8.40;;;1.75;;
52274;SDS011;38228;50.940;4.024;2023-07-30T12:15:51;6.45;;;1.55;;
52274;SDS011;38228;50.940;4.024;2023-07-30T12:18:21;5.10;;;1.20;;
52274;SDS011;38228;50.940;4.024;2023-07-30T12:20:53;7.25;;;1.00;;
52274;SDS011;38228;50.940;4.024;2023-07-30T12:23:20;10.85;;;1.52;;
52274;SDS011;38228;50.940;4.024;2023-07-30T12:25:45;5.90;;;1.20;;
52274;SDS011;38228;50.940;4.024;2023-07-30T12:28:12;8.38;;;1.17;;
52274;SDS011;38228;50.940;4.024;2023-07-30T12:30:39;5.05;;;1.23;;
52274;SDS011;38228;50.940;4.024;2023-07-30T12:33:05;7.90;;;1.50;;
52274;SDS011;38228;50.940;4.024;2023-07-30T12:35:31;6.03;;;1.05;;
52274;SDS011;38228;50.940;4.024;2023-07-30T12:37:57;7.90;;;1.52;;
52274;SDS011;38228;50.940;4.024;2023-07-30T12:40:24;8.48;;;1.40;;
52274;SDS011;38228;50.940;4.024;2023-07-30T12:42:50;8.00;;;1.40;;
52274;SDS011;38228;50.940;4.024;2023-07-30T12:45:15;7.88;;;1.33;;
52274;SDS011;38228;50.940;4.024;2023-07-30T12:47:41;6.63;;;1.27;;
52274;SDS011;38228;50.940;4.024;2023-07-30T12:50:07;6.68;;;1.20;;
52274;SDS011;38228;50.940;4.024;2023-07-30T12:52:33;7.63;;;1.27;;
52274;SDS011;38228;50.940;4.024;2023-07-30T12:55:00;5.43;;;1.23;;
52274;SDS011;38228;50.940;4.024;2023-07-30T12:57:26;6.55;;;1.48;;
52274;SDS011;38228;50.940;4.024;2023-07-30T12:59:52;6.60;;;1.48;;
52274;SDS011;38228;50.940;4.024;2023-07-30T13:02:18;5.97;;;1.40;;
52274;SDS011;38228;50.940;4.024;2023-07-30T13:04:43;4.75;;;1.42;;
52274;SDS011;38228;50.940;4.024;2023-07-30T13:07:09;8.85;;;1.50;;
52274;SDS011;38228;50.940;4.024;2023-07-30T13:09:35;8.18;;;1.55;;
52274;SDS011;38228;50.940;4.024;2023-07-30T13:12:00;7.60;;;2.03;;
52274;SDS011;38228;50.940;4.024;2023-07-30T13:14:26;7.03;;;1.40;;
52274;SDS011;38228;50.940;4.024;2023-07-30T13:16:52;11.30;;;1.80;;
52274;SDS011;38228;50.940;4.024;2023-07-30T13:19:18;8.32;;;1.88;;
52274;SDS011;38228;50.940;4.024;2023-07-30T13:21:43;10.05;;;2.15;;
52274;SDS011;38228;50.940;4.024;2023-07-30T13:24:09;7.50;;;1.90;;
52274;SDS011;38228;50.940;4.024;2023-07-30T13:26:35;6.70;;;1.58;;
52274;SDS011;38228;50.940;4.024;2023-07-30T13:29:01;6.28;;;1.52;;
52274;SDS011;38228;50.940;4.024;2023-07-30T13:31:27;6.25;;;1.77;;
52274;SDS011;38228;50.940;4.024;2023-07-30T13:33:53;7.13;;;2.10;;
52274;SDS011;38228;50.940;4.024;2023-07-30T13:36:19;7.50;;;1.98;;
52274;SDS011;38228;50.940;4.024;2023-07-30T13:38:45;13.60;;;2.63;;
52274;SDS011;38228;50.940;4.024;2023-07-30T13:41:10;10.77;;;2.03;;
52274;SDS011;38228;50.940;4.024;2023-07-30T13:43:36;6.55;;;2.20;;
52274;SDS011;38228;50.940;4.024;2023-07-30T13:46:02;9.65;;;1.90;;
52274;SDS011;38228;50.940;4.024;2023-07-30T13:48:27;8.38;;;1.95;;
52274;SDS011;38228;50.940;4.024;2023-07-30T13:50:53;8.02;;;1.67;;
52274;SDS011;38228;50.940;4.024;2023-07-30T13:53:19;7.22;;;1.95;;
52274;SDS011;38228;50.940;4.024;2023-07-30T13:55:45;8.98;;;2.08;;
52274;SDS011;38228;50.940;4.024;2023-07-30T13:58:11;5.65;;;1.70;;
52274;SDS011;38228;50.940;4.024;2023-07-30T14:00:39;6.90;;;1.73;;
52274;SDS011;38228;50.940;4.024;2023-07-30T14:03:06;9.02;;;2.20;;
52274;SDS011;38228;50.940;4.024;2023-07-30T14:05:31;12.27;;;2.58;;
52274;SDS011;38228;50.940;4.024;2023-07-30T14:07:57;9.93;;;2.35;;
52274;SDS011;38228;50.940;4.024;2023-07-30T14:10:23;6.28;;;2.13;;
52274;SDS011;38228;50.940;4.024;2023-07-30T14:12:49;11.68;;;2.95;;
52274;SDS011;38228;50.940;4.024;2023-07-30T14:15:15;12.70;;;2.45;;
52274;SDS011;38228;50.940;4.024;2023-07-30T14:17:41;9.93;;;2.70;;
52274;SDS011;38228;50.940;4.024;2023-07-30T14:20:07;10.93;;;2.40;;
52274;SDS011;38228;50.940;4.024;2023-07-30T14:22:36;8.77;;;2.38;;
52274;SDS011;38228;50.940;4.024;2023-07-30T14:25:02;12.57;;;3.05;;
52274;SDS011;38228;50.940;4.024;2023-07-30T14:27:28;7.32;;;2.42;;
52274;SDS011;38228;50.940;4.024;2023-07-30T14:29:54;12.60;;;2.85;;
52274;SDS011;38228;50.940;4.024;2023-07-30T14:32:20;12.27;;;2.58;;
52274;SDS011;38228;50.940;4.024;2023-07-30T14:34:46;10.55;;;2.92;;
52274;SDS011;38228;50.940;4.024;2023-07-30T14:37:12;9.52;;;2.90;;
52274;SDS011;38228;50.940;4.024;2023-07-30T14:39:39;12.68;;;2.72;;
52274;SDS011;38228;50.940;4.024;2023-07-30T14:42:06;14.10;;;3.05;;
52274;SDS011;38228;50.940;4.024;2023-07-30T14:44:32;11.10;;;2.90;;
52274;SDS011;38228;50.940;4.024;2023-07-30T14:46:58;15.88;;;2.75;;